createdAt,value
2018-12-20T00:00:19.268Z,17.30
2018-12-20T00:02:46.860Z,16.10
2018-12-20T00:05:14.614Z,16.67
2018-12-20T00:07:42.216Z,17.67
2018-12-20T00:10:09.946Z,17.03
2018-12-20T00:12:37.569Z,16.70
2018-12-20T00:15:06.382Z,16.57
2018-12-20T00:17:39.739Z,16.50
2018-12-20T00:20:07.347Z,16.63
2018-12-20T00:22:34.926Z,15.30
2018-12-20T00:25:02.683Z,14.43
2018-12-20T00:27:30.612Z,14.77
2018-12-20T00:29:58.174Z,15.63
2018-12-20T00:32:25.762Z,14.67
2018-12-20T00:34:53.453Z,14.67
2018-12-20T00:37:21.091Z,13.40
2018-12-20T00:39:48.752Z,14.93
2018-12-20T00:42:16.480Z,14.00
2018-12-20T00:44:44.186Z,14.73
2018-12-20T00:47:11.732Z,14.67
2018-12-20T00:49:39.458Z,14.73
2018-12-20T00:52:07.276Z,14.17
2018-12-20T00:54:34.921Z,14.70
2018-12-20T00:57:02.482Z,13.20
2018-12-20T00:59:30.069Z,13.77
2018-12-20T01:01:57.660Z,13.70
2018-12-20T01:04:25.288Z,14.07
2018-12-20T01:06:53.079Z,13.90
2018-12-20T01:09:20.625Z,14.67
2018-12-20T01:11:48.244Z,12.90
2018-12-20T01:14:15.931Z,14.53
2018-12-20T01:16:43.678Z,15.13
2018-12-20T01:19:11.305Z,13.97
2018-12-20T01:21:38.995Z,13.37
2018-12-20T01:24:06.729Z,14.70
2018-12-20T01:26:34.612Z,13.57
2018-12-20T01:29:02.237Z,13.03
2018-12-20T01:31:29.934Z,13.50
2018-12-20T01:33:57.578Z,12.87
2018-12-20T01:36:25.402Z,13.57
2018-12-20T01:38:53.187Z,13.10
2018-12-20T01:41:20.787Z,14.73
2018-12-20T01:43:48.509Z,13.97
2018-12-20T01:46:16.823Z,13.67
2018-12-20T01:48:44.525Z,13.37
2018-12-20T01:51:12.090Z,13.60
2018-12-20T01:53:39.862Z,13.10
2018-12-20T01:56:07.658Z,13.77
2018-12-20T01:58:35.322Z,13.40
2018-12-20T02:01:02.903Z,13.13
2018-12-20T02:03:30.462Z,14.47
2018-12-20T02:05:57.997Z,14.17
2018-12-20T02:08:25.628Z,14.13
2018-12-20T02:10:53.239Z,14.40
2018-12-20T02:13:20.793Z,13.97
2018-12-20T02:15:48.613Z,14.10
2018-12-20T02:18:16.377Z,13.27
2018-12-20T02:20:43.997Z,13.03
2018-12-20T02:23:11.713Z,12.97
2018-12-20T02:25:40.019Z,13.30
2018-12-20T02:28:07.682Z,13.13
2018-12-20T02:30:35.241Z,13.57
2018-12-20T02:33:02.905Z,15.07
2018-12-20T02:35:30.702Z,12.97
2018-12-20T02:37:58.538Z,14.43
2018-12-20T02:40:26.630Z,14.23
2018-12-20T02:42:54.272Z,14.17
2018-12-20T02:45:21.953Z,13.47
2018-12-20T02:47:49.523Z,13.60
2018-12-20T02:50:17.084Z,14.00
2018-12-20T02:52:44.694Z,14.13
2018-12-20T02:55:12.403Z,13.97
2018-12-20T02:57:40.389Z,14.43
2018-12-20T03:00:08.225Z,14.07
2018-12-20T03:02:35.898Z,14.07
2018-12-20T03:05:04.173Z,13.93
2018-12-20T03:07:31.753Z,14.53
2018-12-20T03:09:59.326Z,14.70
2018-12-20T03:12:26.891Z,14.53
2018-12-20T03:14:54.801Z,14.33
2018-12-20T03:17:22.446Z,14.67
2018-12-20T03:19:50.149Z,14.47
2018-12-20T03:22:17.906Z,16.17
2018-12-20T03:24:45.593Z,15.03
2018-12-20T03:27:13.489Z,14.93
2018-12-20T03:29:41.529Z,14.30
2018-12-20T03:32:09.663Z,14.40
2018-12-20T03:34:37.474Z,15.23
2018-12-20T03:37:05.223Z,13.70
2018-12-20T03:39:33.171Z,14.03
2018-12-20T03:42:00.993Z,13.80
2018-12-20T03:44:28.628Z,14.80
2018-12-20T03:46:56.220Z,13.90
2018-12-20T03:49:23.938Z,14.47
2018-12-20T03:51:51.783Z,15.37
2018-12-20T03:54:19.531Z,14.43
2018-12-20T03:56:47.125Z,15.20
2018-12-20T03:59:15.107Z,15.07
2018-12-20T04:01:42.657Z,14.57
2018-12-20T04:04:10.367Z,15.47
2018-12-20T04:06:38.595Z,14.77
2018-12-20T04:09:06.672Z,15.00
2018-12-20T04:11:34.278Z,14.47
2018-12-20T04:14:01.970Z,15.83
2018-12-20T04:16:29.725Z,14.90
2018-12-20T04:18:57.438Z,13.80
2018-12-20T04:21:25.105Z,15.30
2018-12-20T04:23:52.996Z,14.93
2018-12-20T04:26:20.843Z,14.77
2018-12-20T04:28:48.432Z,14.23
2018-12-20T04:31:16.163Z,13.30
2018-12-20T04:33:43.839Z,13.33
2018-12-20T04:36:11.500Z,14.43
2018-12-20T04:38:39.285Z,13.50
2018-12-20T04:41:07.183Z,13.40
2018-12-20T04:43:35.221Z,13.33
2018-12-20T04:46:02.891Z,14.17
2018-12-20T04:48:30.803Z,13.37
2018-12-20T04:50:58.569Z,13.93
2018-12-20T04:53:26.238Z,13.30
2018-12-20T04:55:54.020Z,13.43
2018-12-20T04:58:21.726Z,12.03
2018-12-20T05:00:49.596Z,12.00
2018-12-20T05:03:17.235Z,13.03
2018-12-20T05:05:44.806Z,12.23
2018-12-20T05:08:12.739Z,11.90
2018-12-20T05:10:40.601Z,12.43
2018-12-20T05:13:08.308Z,12.67
2018-12-20T05:15:35.932Z,12.37
2018-12-20T05:18:03.766Z,12.07
2018-12-20T05:20:31.350Z,11.60
2018-12-20T05:22:58.905Z,12.40
2018-12-20T05:25:26.638Z,11.90
2018-12-20T05:27:54.256Z,11.63
2018-12-20T05:30:22.062Z,11.17
2018-12-20T05:32:49.776Z,11.33
2018-12-20T05:35:17.641Z,11.53
2018-12-20T05:37:45.312Z,10.57
2018-12-20T05:40:13.317Z,11.23
2018-12-20T05:42:41.050Z,11.47
2018-12-20T05:45:08.651Z,10.73
2018-12-20T05:47:36.384Z,11.47
2018-12-20T05:50:05.306Z,10.60
2018-12-20T05:52:33.043Z,10.40
2018-12-20T05:55:00.751Z,10.93
2018-12-20T05:57:28.513Z,11.27
2018-12-20T05:59:56.161Z,11.60
2018-12-20T06:02:24.014Z,11.50
2018-12-20T06:04:51.785Z,11.53
2018-12-20T06:07:19.346Z,11.90
2018-12-20T06:09:47.017Z,12.00
2018-12-20T06:12:14.756Z,12.23
2018-12-20T06:14:42.542Z,11.83
2018-12-20T06:17:10.315Z,12.30
2018-12-20T06:19:38.149Z,11.80
2018-12-20T06:22:06.191Z,11.77
2018-12-20T06:24:33.705Z,11.30
2018-12-20T06:27:01.232Z,12.87
2018-12-20T06:29:28.781Z,12.23
2018-12-20T06:31:56.302Z,13.27
2018-12-20T06:34:23.843Z,12.00
2018-12-20T06:36:51.393Z,12.70
2018-12-20T06:39:18.986Z,13.10
2018-12-20T06:41:46.507Z,12.27
2018-12-20T06:44:14.048Z,12.33
2018-12-20T06:46:56.283Z,12.33
2018-12-20T06:49:23.815Z,11.70
2018-12-20T06:51:51.355Z,11.97
2018-12-20T06:54:18.895Z,13.70
2018-12-20T06:56:46.426Z,12.70
2018-12-20T06:59:13.941Z,13.90
2018-12-20T07:01:41.472Z,13.20
2018-12-20T07:04:09.010Z,13.87
2018-12-20T07:06:36.525Z,12.73
2018-12-20T07:09:07.207Z,13.63
2018-12-20T07:11:34.733Z,12.57
2018-12-20T07:14:02.267Z,12.73
2018-12-20T07:16:29.814Z,14.60
2018-12-20T07:18:57.346Z,13.53
2018-12-20T07:21:24.870Z,14.23
2018-12-20T07:23:52.387Z,14.33
2018-12-20T07:26:19.910Z,14.53
2018-12-20T07:28:47.765Z,14.37
2018-12-20T07:31:15.311Z,15.10
2018-12-20T07:33:42.855Z,14.53
2018-12-20T07:36:10.458Z,14.17
2018-12-20T07:38:37.997Z,14.73
2018-12-20T07:41:05.510Z,14.23
2018-12-20T07:43:33.036Z,15.17
2018-12-20T07:46:00.755Z,15.27
2018-12-20T07:48:32.073Z,15.27
2018-12-20T07:50:57.960Z,15.20
2018-12-20T07:55:59.508Z,15.47
2018-12-20T07:58:27.076Z,15.83
2018-12-20T08:00:54.601Z,16.60
2018-12-20T08:03:22.118Z,15.83
2018-12-20T08:05:49.670Z,15.43
2018-12-20T08:08:17.189Z,17.43
2018-12-20T08:10:44.717Z,17.40
2018-12-20T08:13:12.269Z,16.70
2018-12-20T08:15:39.799Z,16.10
2018-12-20T08:18:07.364Z,16.77
2018-12-20T08:20:34.922Z,16.57
2018-12-20T08:23:02.429Z,17.37
2018-12-20T08:25:29.969Z,18.90
2018-12-20T08:27:57.492Z,18.20
2018-12-20T08:30:25.036Z,17.37
2018-12-20T08:32:52.856Z,18.57
2018-12-20T08:35:20.391Z,19.10
2018-12-20T08:37:47.907Z,18.13
2018-12-20T08:40:15.425Z,19.73
2018-12-20T08:42:42.995Z,18.60
2018-12-20T08:45:10.536Z,17.60
2018-12-20T08:47:38.067Z,18.97
2018-12-20T08:50:06.415Z,18.50
2018-12-20T08:52:33.995Z,20.47
2018-12-20T08:55:01.516Z,19.33
2018-12-20T08:57:29.178Z,18.80
2018-12-20T08:59:56.762Z,19.63
2018-12-20T09:02:24.300Z,19.07
2018-12-20T09:04:51.852Z,20.40
2018-12-20T09:07:19.380Z,19.73
2018-12-20T09:09:46.889Z,18.67
2018-12-20T09:12:14.461Z,19.57
2018-12-20T09:14:42.025Z,19.63
2018-12-20T09:17:09.536Z,19.90
2018-12-20T09:19:37.059Z,18.77
2018-12-20T09:22:04.752Z,21.10
2018-12-20T09:24:32.388Z,20.13
2018-12-20T09:26:59.918Z,19.60
2018-12-20T09:29:27.466Z,20.03
2018-12-20T09:31:54.999Z,19.17
2018-12-20T09:34:22.546Z,19.10
2018-12-20T09:36:50.073Z,19.80
2018-12-20T09:39:17.626Z,19.13
2018-12-20T09:41:45.150Z,20.10
2018-12-20T09:44:13.564Z,19.73
2018-12-20T09:46:41.219Z,20.10
2018-12-20T09:49:08.744Z,18.90
2018-12-20T09:51:36.281Z,20.63
2018-12-20T09:54:03.815Z,20.47
2018-12-20T09:56:31.333Z,19.80
2018-12-20T09:58:58.888Z,20.03
2018-12-20T10:01:26.447Z,19.23
2018-12-20T10:03:54.021Z,20.63
2018-12-20T10:06:21.622Z,20.30
2018-12-20T10:08:49.199Z,18.60
2018-12-20T10:11:16.777Z,19.13
2018-12-20T10:13:44.366Z,19.93
2018-12-20T10:16:11.920Z,21.00
2018-12-20T10:18:39.442Z,19.30
2018-12-20T10:21:07.008Z,19.90
2018-12-20T10:23:34.580Z,20.77
2018-12-20T10:26:02.232Z,19.57
2018-12-20T10:28:30.050Z,18.77
2018-12-20T10:30:57.730Z,21.43
2018-12-20T10:33:25.308Z,21.43
2018-12-20T10:35:58.456Z,20.70
2018-12-20T10:38:26.020Z,19.07
2018-12-20T10:40:53.582Z,21.47
2018-12-20T10:43:21.132Z,19.77
2018-12-20T10:45:48.816Z,19.57
2018-12-20T10:48:16.381Z,20.03
2018-12-20T10:50:43.923Z,19.73
2018-12-20T10:53:11.490Z,19.87
2018-12-20T10:55:39.049Z,20.87
2018-12-20T10:58:06.605Z,20.27
2018-12-20T11:00:39.887Z,20.33
2018-12-20T11:06:10.366Z,20.80
2018-12-20T11:08:39.926Z,19.53
2018-12-20T11:11:09.619Z,19.60
2018-12-20T11:13:37.185Z,20.67
2018-12-20T11:16:04.747Z,19.90
2018-12-20T11:18:32.347Z,20.10
2018-12-20T11:20:59.896Z,20.93
2018-12-20T11:23:27.486Z,21.10
2018-12-20T11:25:55.027Z,20.80
2018-12-20T11:28:22.580Z,20.87
2018-12-20T11:30:50.114Z,21.37
2018-12-20T11:33:17.708Z,20.77
2018-12-20T11:35:45.271Z,21.07
2018-12-20T11:38:12.829Z,20.63
2018-12-20T11:40:40.424Z,21.27
2018-12-20T11:43:08.042Z,20.60
2018-12-20T11:45:35.628Z,20.80
2018-12-20T11:48:03.194Z,20.50
2018-12-20T11:50:30.741Z,20.97
2018-12-20T11:52:58.613Z,21.13
2018-12-20T11:55:26.185Z,21.20
2018-12-20T11:57:53.716Z,20.73
2018-12-20T12:00:21.400Z,21.27
2018-12-20T12:02:48.986Z,21.43
2018-12-20T12:05:16.530Z,20.77
2018-12-20T12:07:44.072Z,20.97
2018-12-20T12:10:11.727Z,20.37
2018-12-20T12:12:39.297Z,19.57
2018-12-20T12:15:06.984Z,19.67
2018-12-20T12:17:34.538Z,20.87
2018-12-20T12:20:02.109Z,21.30
2018-12-20T12:22:29.658Z,19.93
2018-12-20T12:24:57.206Z,20.63
2018-12-20T12:27:24.742Z,20.43
2018-12-20T12:29:52.310Z,21.43
2018-12-20T12:32:19.853Z,20.67
2018-12-20T12:34:47.536Z,19.40
2018-12-20T12:37:15.059Z,19.00
2018-12-20T12:39:42.635Z,19.57
2018-12-20T12:42:10.186Z,18.50
2018-12-20T12:44:37.728Z,19.63
2018-12-20T12:47:07.317Z,20.20
2018-12-20T12:49:35.068Z,19.70
2018-12-20T12:52:02.650Z,19.03
2018-12-20T12:54:30.209Z,19.03
2018-12-20T12:56:57.766Z,19.33
2018-12-20T12:59:25.289Z,19.60
2018-12-20T13:01:52.878Z,18.33
2018-12-20T13:04:20.400Z,17.17
2018-12-20T13:06:47.980Z,18.47
2018-12-20T13:09:15.510Z,17.63
2018-12-20T13:11:43.093Z,17.13
2018-12-20T13:14:10.688Z,18.27
2018-12-20T13:16:38.254Z,17.63
2018-12-20T13:19:05.815Z,18.10
2018-12-20T13:21:33.377Z,18.10
2018-12-20T13:24:01.052Z,18.03
2018-12-20T13:26:28.610Z,17.40
2018-12-20T13:28:56.337Z,16.90
2018-12-20T13:31:23.917Z,18.67
2018-12-20T13:33:51.462Z,16.30
2018-12-20T13:36:19.030Z,16.43
2018-12-20T13:38:46.590Z,16.57
2018-12-20T13:41:14.222Z,15.83
2018-12-20T13:43:42.027Z,17.27
2018-12-20T13:46:09.574Z,15.67
2018-12-20T13:48:37.103Z,15.73
2018-12-20T13:51:04.658Z,15.43
2018-12-20T13:53:32.225Z,15.47
2018-12-20T13:55:59.779Z,14.10
2018-12-20T13:58:27.352Z,14.17
2018-12-20T14:00:54.887Z,14.33
2018-12-20T14:03:22.433Z,14.43
2018-12-20T14:05:49.979Z,14.50
2018-12-20T14:08:17.539Z,13.43
2018-12-20T14:10:45.108Z,12.37
2018-12-20T14:13:12.692Z,12.73
2018-12-20T14:15:40.219Z,12.87
2018-12-20T14:18:07.825Z,11.43
2018-12-20T14:20:35.451Z,12.00
2018-12-20T14:23:03.008Z,12.67
2018-12-20T14:25:30.662Z,11.50
2018-12-20T14:27:58.230Z,12.17
2018-12-20T14:30:25.790Z,11.70
2018-12-20T14:32:53.340Z,11.47
2018-12-20T14:35:21.198Z,10.90
2018-12-20T14:37:48.766Z,11.07
2018-12-20T14:40:16.321Z,10.90
2018-12-20T14:42:43.876Z,10.83
2018-12-20T14:45:11.430Z,11.37
2018-12-20T14:47:39.015Z,11.07
2018-12-20T14:50:07.176Z,10.60
2018-12-20T14:52:34.716Z,9.33
2018-12-20T14:55:02.376Z,10.50
2018-12-20T14:57:29.936Z,10.73
2018-12-20T14:59:57.479Z,10.60
2018-12-20T15:02:25.025Z,10.90
2018-12-20T15:04:52.588Z,10.03
2018-12-20T15:07:20.237Z,10.53
2018-12-20T15:09:47.769Z,10.30
2018-12-20T15:12:15.373Z,9.57
2018-12-20T15:14:42.934Z,10.57
2018-12-20T15:17:10.478Z,10.00
2018-12-20T15:19:38.019Z,10.97
2018-12-20T15:22:05.571Z,9.97
2018-12-20T15:24:33.168Z,10.37
2018-12-20T15:27:00.700Z,10.40
2018-12-20T15:29:28.243Z,9.93
2018-12-20T15:31:55.797Z,9.50
2018-12-20T15:34:23.374Z,10.27
2018-12-20T15:36:50.942Z,9.87
2018-12-20T15:39:18.514Z,9.80
2018-12-20T15:41:46.173Z,10.27
2018-12-20T15:44:13.871Z,10.13
2018-12-20T15:46:41.429Z,9.70
2018-12-20T15:49:09.006Z,23.20
2018-12-20T15:51:36.563Z,12.80
2018-12-20T15:54:04.415Z,21.67
2018-12-20T15:56:31.981Z,37.77
2018-12-20T15:58:59.523Z,19.70
2018-12-20T16:01:27.087Z,27.37
2018-12-20T16:03:54.643Z,23.13
2018-12-20T16:06:22.289Z,12.60
2018-12-20T16:08:49.839Z,13.40
2018-12-20T16:11:17.389Z,11.93
2018-12-20T16:14:02.931Z,11.70
2018-12-20T16:16:30.475Z,14.07
2018-12-20T16:19:04.899Z,12.47
2018-12-20T16:21:27.630Z,13.83
2018-12-20T16:23:55.158Z,10.70
2018-12-20T16:26:22.707Z,13.73
2018-12-20T16:28:50.605Z,11.80
2018-12-20T16:31:18.134Z,11.83
2018-12-20T16:33:45.700Z,12.43
2018-12-20T16:36:13.244Z,14.37
2018-12-20T16:38:40.789Z,9.93
2018-12-20T16:41:08.379Z,12.63
2018-12-20T16:43:35.914Z,11.57
2018-12-20T16:46:03.694Z,10.03
2018-12-20T16:48:31.261Z,10.43
2018-12-20T16:50:59.436Z,10.00
2018-12-20T16:53:26.980Z,11.63
2018-12-20T16:55:54.540Z,9.93
2018-12-20T16:58:22.099Z,10.57
2018-12-20T17:00:49.648Z,10.90
2018-12-20T17:03:17.197Z,9.07
2018-12-20T17:05:44.786Z,10.17
2018-12-20T17:08:12.342Z,10.53
2018-12-20T17:10:39.911Z,10.77
2018-12-20T17:13:07.523Z,16.77
2018-12-20T17:15:35.081Z,29.70
2018-12-20T17:20:28.479Z,16.70
2018-12-20T17:22:55.995Z,11.97
2018-12-20T17:25:23.542Z,14.43
2018-12-20T17:27:51.157Z,10.43
2018-12-20T17:30:18.687Z,11.63
2018-12-20T17:32:46.262Z,11.73
2018-12-20T17:35:13.833Z,19.67
2018-12-20T17:37:41.361Z,51.30
2018-12-20T17:40:08.914Z,34.10
2018-12-20T17:42:36.536Z,32.37
2018-12-20T17:45:05.131Z,45.37
2018-12-20T17:47:32.816Z,33.47
2018-12-20T17:50:00.430Z,54.57
2018-12-20T17:52:28.017Z,40.07
2018-12-20T17:54:55.567Z,24.20
2018-12-20T17:57:23.107Z,15.43
2018-12-20T17:59:50.651Z,26.80
2018-12-20T18:02:18.191Z,40.60
2018-12-20T18:04:45.727Z,33.20
2018-12-20T18:07:13.284Z,17.23
2018-12-20T18:09:40.824Z,33.20
2018-12-20T18:12:08.366Z,35.73
2018-12-20T18:14:35.901Z,73.03
2018-12-20T18:17:03.453Z,54.87
2018-12-20T18:19:38.831Z,20.47
2018-12-20T18:22:00.556Z,29.67
2018-12-20T18:24:28.095Z,36.10
2018-12-20T18:26:55.642Z,20.07
2018-12-20T18:29:23.205Z,22.53
2018-12-20T18:31:50.736Z,22.87
2018-12-20T18:34:18.337Z,16.00
2018-12-20T18:36:45.860Z,15.00
2018-12-20T18:39:13.405Z,18.00
2018-12-20T18:41:40.951Z,16.30
2018-12-20T18:44:08.554Z,13.07
2018-12-20T18:46:37.619Z,15.57
2018-12-20T18:49:05.333Z,27.13
2018-12-20T18:51:32.870Z,15.40
2018-12-20T18:54:00.382Z,11.80
2018-12-20T18:56:28.007Z,11.43
2018-12-20T18:58:55.585Z,13.43
2018-12-20T19:01:23.120Z,13.63
2018-12-20T19:03:50.701Z,10.87
2018-12-20T19:06:18.244Z,17.50
2018-12-20T19:08:45.781Z,22.27
2018-12-20T19:11:13.352Z,12.37
2018-12-20T19:13:40.917Z,9.70
2018-12-20T19:16:08.462Z,9.40
2018-12-20T19:18:36.170Z,9.17
2018-12-20T19:21:03.858Z,9.23
2018-12-20T19:23:31.406Z,9.50
2018-12-20T19:25:59.143Z,9.03
2018-12-20T19:28:26.675Z,9.07
2018-12-20T19:30:54.204Z,10.20
2018-12-20T19:33:21.763Z,9.60
2018-12-20T19:35:49.301Z,9.10
2018-12-20T19:38:20.573Z,8.67
2018-12-20T19:40:46.390Z,8.63
2018-12-20T19:43:13.999Z,7.97
2018-12-20T19:45:45.959Z,9.80
2018-12-20T19:48:11.120Z,10.23
2018-12-20T19:50:38.642Z,9.13
2018-12-20T19:53:06.168Z,8.13
2018-12-20T19:55:33.714Z,9.30
2018-12-20T19:58:01.294Z,8.93
2018-12-20T20:00:28.833Z,9.03
2018-12-20T20:02:56.377Z,10.23
2018-12-20T20:05:24.113Z,9.33
2018-12-20T20:07:51.694Z,8.73
2018-12-20T20:10:19.217Z,9.90
2018-12-20T20:12:46.833Z,10.10
2018-12-20T20:15:16.671Z,9.60
2018-12-20T20:17:43.948Z,10.87
2018-12-20T20:20:14.171Z,9.83
2018-12-20T20:22:41.053Z,10.63
2018-12-20T20:25:08.600Z,10.73
2018-12-20T20:27:36.139Z,9.67
2018-12-20T20:30:06.113Z,10.30
2018-12-20T20:32:33.894Z,9.47
2018-12-20T20:35:01.467Z,10.13
2018-12-20T20:37:29.002Z,10.67
2018-12-20T20:39:56.555Z,12.27
2018-12-20T20:42:24.179Z,9.13
2018-12-20T20:44:51.720Z,9.73
2018-12-20T20:47:19.344Z,9.27
2018-12-20T20:49:46.927Z,9.40
2018-12-20T20:52:14.487Z,10.13
2018-12-20T20:54:42.043Z,9.93
2018-12-20T20:57:11.387Z,9.43
2018-12-20T20:59:38.925Z,8.70
2018-12-20T21:02:06.467Z,9.23
2018-12-20T21:04:34.002Z,9.10
2018-12-20T21:07:01.548Z,9.27
2018-12-20T21:09:30.627Z,8.73
2018-12-20T21:11:58.354Z,9.40
2018-12-20T21:14:25.901Z,9.30
2018-12-20T21:16:53.461Z,8.77
2018-12-20T21:19:21.013Z,8.37
2018-12-20T21:21:48.546Z,8.17
2018-12-20T21:24:16.078Z,9.07
2018-12-20T21:26:43.620Z,8.00
2018-12-20T21:29:11.170Z,8.53
2018-12-20T21:31:38.764Z,8.90
2018-12-20T21:34:06.278Z,8.77
2018-12-20T21:36:33.864Z,8.67
2018-12-20T21:39:01.387Z,8.43
2018-12-20T21:41:28.940Z,8.57
2018-12-20T21:43:56.501Z,8.73
2018-12-20T21:46:24.030Z,9.33
2018-12-20T21:48:51.565Z,9.30
2018-12-20T21:51:19.125Z,7.80
2018-12-20T21:53:54.653Z,9.73
2018-12-20T21:56:16.997Z,9.17
2018-12-20T21:58:44.540Z,9.23
2018-12-20T22:01:12.077Z,9.03
2018-12-20T22:03:39.631Z,9.60
2018-12-20T22:06:07.185Z,10.60
2018-12-20T22:08:34.722Z,9.60
2018-12-20T22:11:02.251Z,9.10
2018-12-20T22:13:29.785Z,10.40
2018-12-20T22:15:57.356Z,11.33
2018-12-20T22:18:24.892Z,10.33
2018-12-20T22:20:52.435Z,10.40
2018-12-20T22:23:19.974Z,10.57
2018-12-20T22:25:47.527Z,10.83
2018-12-20T22:28:15.045Z,11.50
2018-12-20T22:30:42.563Z,10.07
2018-12-20T22:33:10.110Z,10.50
2018-12-20T22:35:37.656Z,10.90
2018-12-20T22:38:05.181Z,10.80
2018-12-20T22:40:32.725Z,11.00
2018-12-20T22:43:00.295Z,11.43
2018-12-20T22:45:27.821Z,11.30
2018-12-20T22:47:55.380Z,12.00
2018-12-20T22:50:22.933Z,12.10
2018-12-20T22:52:50.479Z,11.50
2018-12-20T22:55:18.039Z,12.53
2018-12-20T22:57:45.626Z,11.60
2018-12-20T23:00:14.149Z,11.60
2018-12-20T23:02:41.690Z,13.87
2018-12-20T23:05:09.237Z,11.70
2018-12-20T23:07:36.822Z,12.17
2018-12-20T23:10:05.758Z,12.23
2018-12-20T23:12:33.310Z,11.63
2018-12-20T23:15:00.840Z,12.73
2018-12-20T23:17:28.440Z,13.00
2018-12-20T23:19:56.089Z,12.47
2018-12-20T23:22:23.640Z,11.97
2018-12-20T23:24:51.444Z,12.77
2018-12-20T23:27:18.974Z,12.77
2018-12-20T23:29:46.494Z,11.97
2018-12-20T23:32:14.023Z,11.90
2018-12-20T23:34:41.557Z,13.73
2018-12-20T23:37:09.079Z,13.23
2018-12-20T23:39:36.623Z,12.57
2018-12-20T23:42:04.257Z,12.93
2018-12-20T23:44:31.792Z,11.83
2018-12-20T23:46:59.327Z,12.30
2018-12-20T23:49:26.860Z,11.90
2018-12-20T23:51:54.399Z,12.93
2018-12-20T23:54:21.963Z,12.23
2018-12-20T23:56:49.640Z,12.70
2018-12-20T23:59:17.194Z,12.73
